Terminal Aerodrome Forecast
Issued by NWS

Home | Current Version | Previous Version | Graphics & Text | Print | Product List | Glossary On
Versions: 1 2 3 4 5 6 7 8 9 10 11 12 13 14 15 16 17
334
FTUS41 KCLE 141120
TAFFDY
TAF
KFDY 141120Z 1412/1512 18004KT P6SM BKN060
     FM141700 18008KT P6SM SCT080
     FM150300 19010KT P6SM BKN200 WS020/21040KT
     FM150800 20017G25KT P6SM BKN025=

USA.gov is the U.S. government's official web portal to all federal, state and local government web resources and services.